sensor_id;sensor_type;location;lat;lon;timestamp;P1;durP1;ratioP1;P2;durP2;ratioP2
16994;SDS011;8614;48.522;9.206;2023-11-18T00:00:11;14.83;;;13.93;;
16994;SDS011;8614;48.522;9.206;2023-11-18T00:02:42;14.90;;;13.90;;
16994;SDS011;8614;48.522;9.206;2023-11-18T00:05:09;14.77;;;13.87;;
16994;SDS011;8614;48.522;9.206;2023-11-18T00:07:36;14.37;;;13.57;;
16994;SDS011;8614;48.522;9.206;2023-11-18T00:10:03;15.23;;;14.33;;
16994;SDS011;8614;48.522;9.206;2023-11-18T00:12:32;15.03;;;14.13;;
16994;SDS011;8614;48.522;9.206;2023-11-18T00:15:00;14.50;;;13.70;;
16994;SDS011;8614;48.522;9.206;2023-11-18T00:17:28;14.07;;;13.17;;
16994;SDS011;8614;48.522;9.206;2023-11-18T00:19:55;13.67;;;12.87;;
16994;SDS011;8614;48.522;9.206;2023-11-18T00:22:22;13.90;;;13.10;;
16994;SDS011;8614;48.522;9.206;2023-11-18T00:24:49;14.27;;;13.37;;
16994;SDS011;8614;48.522;9.206;2023-11-18T00:27:15;14.40;;;13.60;;
16994;SDS011;8614;48.522;9.206;2023-11-18T00:29:44;13.90;;;13.00;;
16994;SDS011;8614;48.522;9.206;2023-11-18T00:32:10;14.43;;;13.53;;
16994;SDS011;8614;48.522;9.206;2023-11-18T00:34:37;14.30;;;13.50;;
16994;SDS011;8614;48.522;9.206;2023-11-18T00:37:04;14.60;;;13.70;;
16994;SDS011;8614;48.522;9.206;2023-11-18T00:39:32;14.40;;;13.60;;
16994;SDS011;8614;48.522;9.206;2023-11-18T00:41:59;14.13;;;13.33;;
16994;SDS011;8614;48.522;9.206;2023-11-18T00:44:26;14.30;;;13.50;;
16994;SDS011;8614;48.522;9.206;2023-11-18T00:46:55;14.20;;;13.40;;
16994;SDS011;8614;48.522;9.206;2023-11-18T00:49:22;13.97;;;12.97;;
16994;SDS011;8614;48.522;9.206;2023-11-18T00:51:51;14.30;;;13.50;;
16994;SDS011;8614;48.522;9.206;2023-11-18T00:54:17;14.30;;;13.50;;
16994;SDS011;8614;48.522;9.206;2023-11-18T00:56:44;14.03;;;13.23;;
16994;SDS011;8614;48.522;9.206;2023-11-18T00:59:11;14.20;;;13.40;;
16994;SDS011;8614;48.522;9.206;2023-11-18T01:01:38;13.90;;;13.00;;
16994;SDS011;8614;48.522;9.206;2023-11-18T01:04:06;13.90;;;13.07;;
16994;SDS011;8614;48.522;9.206;2023-11-18T01:06:35;13.77;;;12.97;;
16994;SDS011;8614;48.522;9.206;2023-11-18T01:09:02;14.63;;;13.70;;
16994;SDS011;8614;48.522;9.206;2023-11-18T01:11:32;14.07;;;13.27;;
16994;SDS011;8614;48.522;9.206;2023-11-18T01:13:58;14.23;;;13.43;;
16994;SDS011;8614;48.522;9.206;2023-11-18T01:16:27;13.83;;;13.03;;
16994;SDS011;8614;48.522;9.206;2023-11-18T01:18:54;14.00;;;13.10;;
16994;SDS011;8614;48.522;9.206;2023-11-18T01:21:22;14.00;;;13.10;;
16994;SDS011;8614;48.522;9.206;2023-11-18T01:23:49;13.97;;;13.17;;
16994;SDS011;8614;48.522;9.206;2023-11-18T01:26:16;13.60;;;12.80;;
16994;SDS011;8614;48.522;9.206;2023-11-18T01:28:43;13.63;;;12.83;;
16994;SDS011;8614;48.522;9.206;2023-11-18T01:31:10;14.00;;;13.20;;
16994;SDS011;8614;48.522;9.206;2023-11-18T01:33:37;13.60;;;12.80;;
16994;SDS011;8614;48.522;9.206;2023-11-18T01:36:06;14.30;;;13.50;;
16994;SDS011;8614;48.522;9.206;2023-11-18T01:38:35;14.30;;;13.47;;
16994;SDS011;8614;48.522;9.206;2023-11-18T01:41:04;14.27;;;13.47;;
16994;SDS011;8614;48.522;9.206;2023-11-18T01:43:31;14.50;;;13.70;;
16994;SDS011;8614;48.522;9.206;2023-11-18T01:45:58;13.90;;;13.10;;
16994;SDS011;8614;48.522;9.206;2023-11-18T01:48:27;13.97;;;13.13;;
16994;SDS011;8614;48.522;9.206;2023-11-18T01:50:55;13.77;;;12.97;;
16994;SDS011;8614;48.522;9.206;2023-11-18T01:53:24;13.97;;;13.17;;
16994;SDS011;8614;48.522;9.206;2023-11-18T01:55:53;13.77;;;12.97;;
16994;SDS011;8614;48.522;9.206;2023-11-18T01:58:21;14.10;;;13.30;;
16994;SDS011;8614;48.522;9.206;2023-11-18T02:00:48;14.27;;;13.37;;
16994;SDS011;8614;48.522;9.206;2023-11-18T02:03:17;14.53;;;13.63;;
16994;SDS011;8614;48.522;9.206;2023-11-18T02:05:45;14.10;;;13.30;;
16994;SDS011;8614;48.522;9.206;2023-11-18T02:08:12;14.10;;;13.30;;
16994;SDS011;8614;48.522;9.206;2023-11-18T02:10:42;14.70;;;13.87;;
16994;SDS011;8614;48.522;9.206;2023-11-18T02:13:21;14.53;;;13.63;;
16994;SDS011;8614;48.522;9.206;2023-11-18T02:15:52;14.07;;;13.27;;
16994;SDS011;8614;48.522;9.206;2023-11-18T02:18:22;14.10;;;13.20;;
16994;SDS011;8614;48.522;9.206;2023-11-18T02:20:51;14.10;;;13.30;;
16994;SDS011;8614;48.522;9.206;2023-11-18T02:23:19;14.60;;;13.70;;
16994;SDS011;8614;48.522;9.206;2023-11-18T02:25:49;14.20;;;13.30;;
16994;SDS011;8614;48.522;9.206;2023-11-18T02:28:15;14.27;;;13.47;;
16994;SDS011;8614;48.522;9.206;2023-11-18T02:30:43;14.10;;;13.23;;
16994;SDS011;8614;48.522;9.206;2023-11-18T02:33:12;14.60;;;13.70;;
16994;SDS011;8614;48.522;9.206;2023-11-18T02:35:46;14.10;;;13.30;;
16994;SDS011;8614;48.522;9.206;2023-11-18T02:38:19;14.47;;;13.57;;
16994;SDS011;8614;48.522;9.206;2023-11-18T02:40:55;14.47;;;13.57;;
16994;SDS011;8614;48.522;9.206;2023-11-18T02:43:24;13.77;;;13.03;;
16994;SDS011;8614;48.522;9.206;2023-11-18T02:45:53;14.50;;;13.60;;
16994;SDS011;8614;48.522;9.206;2023-11-18T02:48:22;14.30;;;13.47;;
16994;SDS011;8614;48.522;9.206;2023-11-18T02:50:52;14.30;;;13.30;;
16994;SDS011;8614;48.522;9.206;2023-11-18T02:53:19;13.60;;;12.80;;
16994;SDS011;8614;48.522;9.206;2023-11-18T02:55:47;14.10;;;13.30;;
16994;SDS011;8614;48.522;9.206;2023-11-18T02:58:18;14.53;;;13.43;;
16994;SDS011;8614;48.522;9.206;2023-11-18T03:00:45;14.53;;;13.63;;
16994;SDS011;8614;48.522;9.206;2023-11-18T03:03:13;14.50;;;13.63;;
16994;SDS011;8614;48.522;9.206;2023-11-18T03:05:41;14.67;;;13.77;;
16994;SDS011;8614;48.522;9.206;2023-11-18T03:08:08;14.50;;;13.60;;
16994;SDS011;8614;48.522;9.206;2023-11-18T03:10:35;14.10;;;13.30;;
16994;SDS011;8614;48.522;9.206;2023-11-18T03:13:02;14.40;;;13.50;;
16994;SDS011;8614;48.522;9.206;2023-11-18T03:15:30;14.07;;;13.27;;
16994;SDS011;8614;48.522;9.206;2023-11-18T03:17:57;14.33;;;13.43;;
16994;SDS011;8614;48.522;9.206;2023-11-18T03:20:24;14.50;;;13.60;;
16994;SDS011;8614;48.522;9.206;2023-11-18T03:22:51;14.20;;;13.40;;
16994;SDS011;8614;48.522;9.206;2023-11-18T03:25:19;14.30;;;13.40;;
16994;SDS011;8614;48.522;9.206;2023-11-18T03:27:47;14.40;;;13.53;;
16994;SDS011;8614;48.522;9.206;2023-11-18T03:30:14;14.17;;;13.37;;
16994;SDS011;8614;48.522;9.206;2023-11-18T03:32:43;14.37;;;13.47;;
16994;SDS011;8614;48.522;9.206;2023-11-18T03:35:10;14.70;;;13.80;;
16994;SDS011;8614;48.522;9.206;2023-11-18T03:37:37;14.80;;;13.90;;
16994;SDS011;8614;48.522;9.206;2023-11-18T03:40:06;14.70;;;13.80;;
16994;SDS011;8614;48.522;9.206;2023-11-18T03:42:34;16.03;;;14.97;;
16994;SDS011;8614;48.522;9.206;2023-11-18T03:45:02;14.30;;;13.40;;
16994;SDS011;8614;48.522;9.206;2023-11-18T03:47:29;14.97;;;14.07;;
16994;SDS011;8614;48.522;9.206;2023-11-18T03:49:58;15.10;;;14.20;;
16994;SDS011;8614;48.522;9.206;2023-11-18T03:52:25;14.77;;;13.87;;
16994;SDS011;8614;48.522;9.206;2023-11-18T03:54:52;14.83;;;13.93;;
16994;SDS011;8614;48.522;9.206;2023-11-18T03:57:20;14.97;;;14.07;;
16994;SDS011;8614;48.522;9.206;2023-11-18T03:59:47;14.93;;;13.90;;
16994;SDS011;8614;48.522;9.206;2023-11-18T04:02:13;15.00;;;14.00;;
16994;SDS011;8614;48.522;9.206;2023-11-18T04:04:40;15.17;;;14.27;;
16994;SDS011;8614;48.522;9.206;2023-11-18T04:07:08;15.13;;;14.23;;
16994;SDS011;8614;48.522;9.206;2023-11-18T04:09:35;15.60;;;14.47;;
16994;SDS011;8614;48.522;9.206;2023-11-18T04:12:02;15.80;;;14.80;;
16994;SDS011;8614;48.522;9.206;2023-11-18T04:14:30;15.90;;;14.90;;
16994;SDS011;8614;48.522;9.206;2023-11-18T04:16:57;16.03;;;15.03;;
16994;SDS011;8614;48.522;9.206;2023-11-18T04:19:25;15.13;;;14.23;;
16994;SDS011;8614;48.522;9.206;2023-11-18T04:21:52;15.60;;;14.60;;
16994;SDS011;8614;48.522;9.206;2023-11-18T04:24:20;15.93;;;14.93;;
16994;SDS011;8614;48.522;9.206;2023-11-18T04:26:47;15.90;;;14.97;;
16994;SDS011;8614;48.522;9.206;2023-11-18T04:29:15;17.20;;;16.10;;
16994;SDS011;8614;48.522;9.206;2023-11-18T04:31:43;16.40;;;15.40;;
16994;SDS011;8614;48.522;9.206;2023-11-18T04:34:10;16.80;;;15.80;;
16994;SDS011;8614;48.522;9.206;2023-11-18T04:36:37;16.57;;;15.57;;
16994;SDS011;8614;48.522;9.206;2023-11-18T04:39:04;16.77;;;15.70;;
16994;SDS011;8614;48.522;9.206;2023-11-18T04:41:32;16.23;;;15.33;;
16994;SDS011;8614;48.522;9.206;2023-11-18T04:43:58;15.83;;;14.83;;
16994;SDS011;8614;48.522;9.206;2023-11-18T04:46:25;16.27;;;15.13;;
16994;SDS011;8614;48.522;9.206;2023-11-18T04:48:52;15.80;;;14.77;;
16994;SDS011;8614;48.522;9.206;2023-11-18T04:51:19;15.57;;;14.67;;
16994;SDS011;8614;48.522;9.206;2023-11-18T04:53:47;16.23;;;15.13;;
16994;SDS011;8614;48.522;9.206;2023-11-18T04:56:14;15.77;;;14.77;;
16994;SDS011;8614;48.522;9.206;2023-11-18T04:58:45;15.70;;;14.70;;
16994;SDS011;8614;48.522;9.206;2023-11-18T05:01:13;16.00;;;15.10;;
16994;SDS011;8614;48.522;9.206;2023-11-18T05:03:40;15.73;;;14.70;;
16994;SDS011;8614;48.522;9.206;2023-11-18T05:06:07;15.73;;;14.83;;
16994;SDS011;8614;48.522;9.206;2023-11-18T05:08:34;15.63;;;14.63;;
16994;SDS011;8614;48.522;9.206;2023-11-18T05:11:01;15.67;;;14.57;;
16994;SDS011;8614;48.522;9.206;2023-11-18T05:13:29;15.47;;;14.53;;
16994;SDS011;8614;48.522;9.206;2023-11-18T05:15:59;16.37;;;15.37;;
16994;SDS011;8614;48.522;9.206;2023-11-18T05:18:26;15.30;;;14.40;;
16994;SDS011;8614;48.522;9.206;2023-11-18T05:20:54;16.27;;;15.27;;
16994;SDS011;8614;48.522;9.206;2023-11-18T05:23:22;16.13;;;15.13;;
16994;SDS011;8614;48.522;9.206;2023-11-18T05:25:49;15.83;;;14.93;;
16994;SDS011;8614;48.522;9.206;2023-11-18T05:28:16;15.73;;;14.83;;
16994;SDS011;8614;48.522;9.206;2023-11-18T05:30:43;16.00;;;15.00;;
16994;SDS011;8614;48.522;9.206;2023-11-18T05:33:11;16.70;;;15.70;;
16994;SDS011;8614;48.522;9.206;2023-11-18T05:35:42;16.90;;;15.80;;
16994;SDS011;8614;48.522;9.206;2023-11-18T05:38:14;16.50;;;15.50;;
16994;SDS011;8614;48.522;9.206;2023-11-18T05:40:43;15.90;;;15.00;;
16994;SDS011;8614;48.522;9.206;2023-11-18T05:43:21;16.27;;;15.37;;
16994;SDS011;8614;48.522;9.206;2023-11-18T05:45:49;16.60;;;15.60;;
16994;SDS011;8614;48.522;9.206;2023-11-18T05:48:41;16.37;;;15.37;;
16994;SDS011;8614;48.522;9.206;2023-11-18T05:51:08;15.83;;;14.93;;
16994;SDS011;8614;48.522;9.206;2023-11-18T05:53:39;16.63;;;15.63;;
16994;SDS011;8614;48.522;9.206;2023-11-18T05:56:07;16.07;;;15.17;;
16994;SDS011;8614;48.522;9.206;2023-11-18T05:58:34;16.47;;;15.47;;
16994;SDS011;8614;48.522;9.206;2023-11-18T06:01:01;16.13;;;15.13;;
16994;SDS011;8614;48.522;9.206;2023-11-18T06:03:28;16.37;;;15.37;;
16994;SDS011;8614;48.522;9.206;2023-11-18T06:05:57;17.40;;;16.07;;
16994;SDS011;8614;48.522;9.206;2023-11-18T06:08:24;16.90;;;15.90;;
16994;SDS011;8614;48.522;9.206;2023-11-18T06:10:51;16.80;;;15.67;;
16994;SDS011;8614;48.522;9.206;2023-11-18T06:13:21;16.10;;;15.20;;
16994;SDS011;8614;48.522;9.206;2023-11-18T06:15:48;16.00;;;15.10;;
16994;SDS011;8614;48.522;9.206;2023-11-18T06:18:16;16.63;;;15.63;;
16994;SDS011;8614;48.522;9.206;2023-11-18T06:20:44;16.40;;;15.50;;
16994;SDS011;8614;48.522;9.206;2023-11-18T06:23:12;15.63;;;14.73;;
16994;SDS011;8614;48.522;9.206;2023-11-18T06:25:41;16.00;;;15.00;;
16994;SDS011;8614;48.522;9.206;2023-11-18T06:28:07;15.37;;;14.47;;
16994;SDS011;8614;48.522;9.206;2023-11-18T06:30:34;15.73;;;14.83;;
16994;SDS011;8614;48.522;9.206;2023-11-18T06:33:01;15.63;;;14.73;;
16994;SDS011;8614;48.522;9.206;2023-11-18T06:35:31;15.40;;;14.50;;
16994;SDS011;8614;48.522;9.206;2023-11-18T06:38:19;15.50;;;14.60;;
16994;SDS011;8614;48.522;9.206;2023-11-18T06:41:08;14.73;;;13.93;;
16994;SDS011;8614;48.522;9.206;2023-11-18T06:51:31;15.53;;;14.63;;
16994;SDS011;8614;48.522;9.206;2023-11-18T06:54:07;16.63;;;15.53;;
16994;SDS011;8614;48.522;9.206;2023-11-18T06:56:35;16.13;;;15.13;;
16994;SDS011;8614;48.522;9.206;2023-11-18T06:59:06;16.60;;;15.50;;
16994;SDS011;8614;48.522;9.206;2023-11-18T07:02:02;17.10;;;15.93;;
16994;SDS011;8614;48.522;9.206;2023-11-18T07:04:44;16.50;;;15.50;;
16994;SDS011;8614;48.522;9.206;2023-11-18T07:07:25;15.87;;;14.97;;
16994;SDS011;8614;48.522;9.206;2023-11-18T07:09:53;16.63;;;15.63;;
16994;SDS011;8614;48.522;9.206;2023-11-18T07:12:20;16.17;;;15.03;;
16994;SDS011;8614;48.522;9.206;2023-11-18T07:14:47;16.10;;;15.10;;
16994;SDS011;8614;48.522;9.206;2023-11-18T07:17:14;16.40;;;15.40;;
16994;SDS011;8614;48.522;9.206;2023-11-18T07:19:44;15.50;;;14.60;;
16994;SDS011;8614;48.522;9.206;2023-11-18T07:22:11;15.90;;;15.00;;
16994;SDS011;8614;48.522;9.206;2023-11-18T07:24:46;15.80;;;14.80;;
16994;SDS011;8614;48.522;9.206;2023-11-18T07:27:19;15.50;;;14.60;;
16994;SDS011;8614;48.522;9.206;2023-11-18T07:30:13;15.67;;;14.67;;
16994;SDS011;8614;48.522;9.206;2023-11-18T07:32:43;15.80;;;14.90;;
16994;SDS011;8614;48.522;9.206;2023-11-18T07:35:12;15.53;;;14.63;;
16994;SDS011;8614;48.522;9.206;2023-11-18T07:37:39;15.70;;;14.80;;
16994;SDS011;8614;48.522;9.206;2023-11-18T07:40:06;15.17;;;14.27;;
16994;SDS011;8614;48.522;9.206;2023-11-18T07:42:38;15.30;;;14.30;;
16994;SDS011;8614;48.522;9.206;2023-11-18T07:45:05;15.10;;;14.10;;
16994;SDS011;8614;48.522;9.206;2023-11-18T07:47:42;15.87;;;14.87;;
16994;SDS011;8614;48.522;9.206;2023-11-18T07:50:09;14.60;;;13.70;;
16994;SDS011;8614;48.522;9.206;2023-11-18T07:52:37;15.27;;;14.27;;
16994;SDS011;8614;48.522;9.206;2023-11-18T07:55:05;15.57;;;14.57;;
16994;SDS011;8614;48.522;9.206;2023-11-18T07:57:34;14.93;;;14.03;;
16994;SDS011;8614;48.522;9.206;2023-11-18T08:00:04;15.70;;;14.70;;
16994;SDS011;8614;48.522;9.206;2023-11-18T08:02:38;15.43;;;14.33;;
16994;SDS011;8614;48.522;9.206;2023-11-18T08:05:05;15.70;;;14.60;;
16994;SDS011;8614;48.522;9.206;2023-11-18T08:07:34;15.17;;;14.17;;
16994;SDS011;8614;48.522;9.206;2023-11-18T08:10:01;15.60;;;14.50;;
16994;SDS011;8614;48.522;9.206;2023-11-18T08:12:30;14.90;;;13.97;;
16994;SDS011;8614;48.522;9.206;2023-11-18T08:14:59;14.47;;;13.57;;
16994;SDS011;8614;48.522;9.206;2023-11-18T08:17:28;14.50;;;13.60;;
16994;SDS011;8614;48.522;9.206;2023-11-18T08:19:55;14.63;;;13.73;;
16994;SDS011;8614;48.522;9.206;2023-11-18T08:22:23;14.50;;;13.60;;
16994;SDS011;8614;48.522;9.206;2023-11-18T08:24:50;14.07;;;13.27;;
16994;SDS011;8614;48.522;9.206;2023-11-18T08:27:17;14.10;;;13.20;;
16994;SDS011;8614;48.522;9.206;2023-11-18T08:29:44;14.17;;;13.27;;
16994;SDS011;8614;48.522;9.206;2023-11-18T08:32:15;14.10;;;13.20;;
16994;SDS011;8614;48.522;9.206;2023-11-18T08:34:42;13.63;;;12.77;;
16994;SDS011;8614;48.522;9.206;2023-11-18T08:37:09;13.53;;;12.60;;
16994;SDS011;8614;48.522;9.206;2023-11-18T08:39:36;13.40;;;12.60;;
16994;SDS011;8614;48.522;9.206;2023-11-18T08:42:03;13.00;;;12.30;;
16994;SDS011;8614;48.522;9.206;2023-11-18T08:44:32;13.27;;;12.47;;
16994;SDS011;8614;48.522;9.206;2023-11-18T08:46:59;13.53;;;12.73;;
16994;SDS011;8614;48.522;9.206;2023-11-18T08:49:32;14.10;;;13.20;;
16994;SDS011;8614;48.522;9.206;2023-11-18T08:51:59;14.07;;;13.17;;
16994;SDS011;8614;48.522;9.206;2023-11-18T08:54:26;13.63;;;12.70;;
16994;SDS011;8614;48.522;9.206;2023-11-18T08:57:02;13.10;;;12.37;;
16994;SDS011;8614;48.522;9.206;2023-11-18T08:59:29;13.30;;;12.50;;
16994;SDS011;8614;48.522;9.206;2023-11-18T09:01:55;12.60;;;11.90;;
16994;SDS011;8614;48.522;9.206;2023-11-18T09:04:24;12.50;;;11.70;;
16994;SDS011;8614;48.522;9.206;2023-11-18T09:06:54;12.37;;;11.67;;
16994;SDS011;8614;48.522;9.206;2023-11-18T09:09:25;12.60;;;11.77;;
16994;SDS011;8614;48.522;9.206;2023-11-18T09:11:53;12.77;;;11.97;;
16994;SDS011;8614;48.522;9.206;2023-11-18T09:14:21;12.20;;;11.50;;
16994;SDS011;8614;48.522;9.206;2023-11-18T09:16:49;12.57;;;11.77;;
16994;SDS011;8614;48.522;9.206;2023-11-18T09:19:16;12.63;;;11.90;;
16994;SDS011;8614;48.522;9.206;2023-11-18T09:21:46;12.83;;;12.13;;
16994;SDS011;8614;48.522;9.206;2023-11-18T09:24:15;12.80;;;12.00;;
16994;SDS011;8614;48.522;9.206;2023-11-18T09:26:45;13.10;;;12.30;;
16994;SDS011;8614;48.522;9.206;2023-11-18T09:29:15;12.60;;;11.90;;
16994;SDS011;8614;48.522;9.206;2023-11-18T09:31:43;12.23;;;11.53;;
16994;SDS011;8614;48.522;9.206;2023-11-18T09:34:13;12.97;;;12.17;;
16994;SDS011;8614;48.522;9.206;2023-11-18T09:36:42;13.40;;;12.40;;
16994;SDS011;8614;48.522;9.206;2023-11-18T09:39:09;13.33;;;12.57;;
16994;SDS011;8614;48.522;9.206;2023-11-18T09:41:42;13.00;;;12.20;;
16994;SDS011;8614;48.522;9.206;2023-11-18T09:44:09;14.77;;;13.77;;
16994;SDS011;8614;48.522;9.206;2023-11-18T09:46:37;14.27;;;13.17;;
16994;SDS011;8614;48.522;9.206;2023-11-18T09:49:12;14.57;;;13.50;;
16994;SDS011;8614;48.522;9.206;2023-11-18T09:51:50;14.80;;;13.70;;
16994;SDS011;8614;48.522;9.206;2023-11-18T09:54:24;15.33;;;14.23;;
16994;SDS011;8614;48.522;9.206;2023-11-18T09:57:02;14.77;;;13.67;;
16994;SDS011;8614;48.522;9.206;2023-11-18T09:59:37;13.70;;;12.90;;
16994;SDS011;8614;48.522;9.206;2023-11-18T10:02:10;14.67;;;13.53;;
16994;SDS011;8614;48.522;9.206;2023-11-18T10:04:37;13.67;;;12.77;;
16994;SDS011;8614;48.522;9.206;2023-11-18T10:07:05;13.43;;;12.53;;
16994;SDS011;8614;48.522;9.206;2023-11-18T10:09:35;12.80;;;12.00;;
16994;SDS011;8614;48.522;9.206;2023-11-18T10:12:06;12.80;;;12.00;;
16994;SDS011;8614;48.522;9.206;2023-11-18T10:14:34;13.80;;;12.97;;
16994;SDS011;8614;48.522;9.206;2023-11-18T10:17:03;13.07;;;12.27;;
16994;SDS011;8614;48.522;9.206;2023-11-18T10:22:20;13.90;;;13.00;;
16994;SDS011;8614;48.522;9.206;2023-11-18T10:24:49;13.37;;;12.57;;
16994;SDS011;8614;48.522;9.206;2023-11-18T10:27:21;12.73;;;12.00;;
16994;SDS011;8614;48.522;9.206;2023-11-18T10:29:50;12.90;;;12.00;;
16994;SDS011;8614;48.522;9.206;2023-11-18T10:32:21;12.60;;;11.90;;
16994;SDS011;8614;48.522;9.206;2023-11-18T10:34:52;12.93;;;11.97;;
16994;SDS011;8614;48.522;9.206;2023-11-18T10:37:21;13.17;;;12.27;;
16994;SDS011;8614;48.522;9.206;2023-11-18T10:39:49;13.90;;;12.90;;
16994;SDS011;8614;48.522;9.206;2023-11-18T10:42:16;13.47;;;12.67;;
16994;SDS011;8614;48.522;9.206;2023-11-18T10:44:58;13.77;;;12.87;;
16994;SDS011;8614;48.522;9.206;2023-11-18T10:47:27;13.70;;;12.70;;
16994;SDS011;8614;48.522;9.206;2023-11-18T10:49:54;13.00;;;12.20;;
16994;SDS011;8614;48.522;9.206;2023-11-18T10:52:22;13.90;;;13.00;;
16994;SDS011;8614;48.522;9.206;2023-11-18T10:54:51;13.73;;;12.83;;
16994;SDS011;8614;48.522;9.206;2023-11-18T10:57:19;13.90;;;13.00;;
16994;SDS011;8614;48.522;9.206;2023-11-18T10:59:59;14.60;;;13.60;;
16994;SDS011;8614;48.522;9.206;2023-11-18T11:02:29;14.43;;;13.43;;
16994;SDS011;8614;48.522;9.206;2023-11-18T11:05:00;14.80;;;13.80;;
16994;SDS011;8614;48.522;9.206;2023-11-18T11:07:27;14.00;;;13.00;;
16994;SDS011;8614;48.522;9.206;2023-11-18T11:09:55;14.17;;;13.07;;
16994;SDS011;8614;48.522;9.206;2023-11-18T11:12:22;13.93;;;12.93;;
16994;SDS011;8614;48.522;9.206;2023-11-18T11:14:53;13.47;;;12.57;;
16994;SDS011;8614;48.522;9.206;2023-11-18T11:17:27;13.23;;;12.43;;
16994;SDS011;8614;48.522;9.206;2023-11-18T11:19:58;13.80;;;12.90;;
16994;SDS011;8614;48.522;9.206;2023-11-18T11:22:42;13.87;;;12.87;;
16994;SDS011;8614;48.522;9.206;2023-11-18T11:25:24;14.20;;;13.30;;
16994;SDS011;8614;48.522;9.206;2023-11-18T11:28:03;13.40;;;12.60;;
16994;SDS011;8614;48.522;9.206;2023-11-18T11:31:08;13.47;;;12.57;;
16994;SDS011;8614;48.522;9.206;2023-11-18T11:33:46;13.55;;;12.55;;
16994;SDS011;8614;48.522;9.206;2023-11-18T11:36:29;5.07;;;4.57;;
16994;SDS011;8614;48.522;9.206;2023-11-18T11:39:06;12.43;;;11.67;;
16994;SDS011;8614;48.522;9.206;2023-11-18T11:41:42;12.33;;;11.53;;
16994;SDS011;8614;48.522;9.206;2023-11-18T11:44:11;11.97;;;11.27;;
16994;SDS011;8614;48.522;9.206;2023-11-18T11:46:39;12.30;;;11.40;;
16994;SDS011;8614;48.522;9.206;2023-11-18T11:49:09;13.03;;;12.20;;
16994;SDS011;8614;48.522;9.206;2023-11-18T11:51:46;12.97;;;12.00;;
16994;SDS011;8614;48.522;9.206;2023-11-18T11:54:16;12.20;;;11.30;;
16994;SDS011;8614;48.522;9.206;2023-11-18T11:56:47;12.93;;;12.13;;
16994;SDS011;8614;48.522;9.206;2023-11-18T11:59:25;13.07;;;12.07;;
16994;SDS011;8614;48.522;9.206;2023-11-18T12:02:02;12.40;;;11.60;;
16994;SDS011;8614;48.522;9.206;2023-11-18T12:04:34;12.40;;;11.60;;
16994;SDS011;8614;48.522;9.206;2023-11-18T12:07:03;12.30;;;11.50;;
16994;SDS011;8614;48.522;9.206;2023-11-18T12:09:31;13.10;;;12.10;;
16994;SDS011;8614;48.522;9.206;2023-11-18T12:12:03;12.43;;;11.60;;
16994;SDS011;8614;48.522;9.206;2023-11-18T12:14:48;12.53;;;11.63;;
16994;SDS011;8614;48.522;9.206;2023-11-18T12:17:17;12.60;;;11.80;;
16994;SDS011;8614;48.522;9.206;2023-11-18T12:19:48;12.57;;;11.80;;
16994;SDS011;8614;48.522;9.206;2023-11-18T12:22:23;12.23;;;11.43;;
16994;SDS011;8614;48.522;9.206;2023-11-18T12:28:11;12.77;;;11.97;;
16994;SDS011;8614;48.522;9.206;2023-11-18T12:30:41;13.43;;;12.43;;
16994;SDS011;8614;48.522;9.206;2023-11-18T12:36:43;12.77;;;11.87;;
16994;SDS011;8614;48.522;9.206;2023-11-18T12:39:26;12.57;;;11.73;;
16994;SDS011;8614;48.522;9.206;2023-11-18T12:42:20;12.17;;;11.37;;
16994;SDS011;8614;48.522;9.206;2023-11-18T12:45:20;12.20;;;11.50;;
16994;SDS011;8614;48.522;9.206;2023-11-18T12:48:19;11.77;;;11.07;;
16994;SDS011;8614;48.522;9.206;2023-11-18T12:50:52;13.10;;;11.87;;
16994;SDS011;8614;48.522;9.206;2023-11-18T12:53:22;11.50;;;10.80;;
16994;SDS011;8614;48.522;9.206;2023-11-18T12:55:50;11.80;;;11.10;;
16994;SDS011;8614;48.522;9.206;2023-11-18T12:58:18;11.43;;;10.73;;
16994;SDS011;8614;48.522;9.206;2023-11-18T13:00:48;12.10;;;11.30;;
16994;SDS011;8614;48.522;9.206;2023-11-18T13:03:15;12.60;;;11.70;;
16994;SDS011;8614;48.522;9.206;2023-11-18T13:05:43;11.97;;;11.17;;
16994;SDS011;8614;48.522;9.206;2023-11-18T13:08:10;12.00;;;11.10;;
16994;SDS011;8614;48.522;9.206;2023-11-18T13:10:48;10.70;;;10.00;;
16994;SDS011;8614;48.522;9.206;2023-11-18T13:13:54;11.80;;;11.10;;
16994;SDS011;8614;48.522;9.206;2023-11-18T13:16:21;12.60;;;11.80;;
16994;SDS011;8614;48.522;9.206;2023-11-18T13:18:48;12.00;;;11.20;;
16994;SDS011;8614;48.522;9.206;2023-11-18T13:21:15;12.17;;;11.27;;
16994;SDS011;8614;48.522;9.206;2023-11-18T13:23:46;11.60;;;10.90;;
16994;SDS011;8614;48.522;9.206;2023-11-18T13:26:15;12.20;;;11.40;;
16994;SDS011;8614;48.522;9.206;2023-11-18T13:28:45;12.20;;;11.40;;
16994;SDS011;8614;48.522;9.206;2023-11-18T13:31:13;12.17;;;11.37;;
16994;SDS011;8614;48.522;9.206;2023-11-18T13:33:41;12.23;;;11.43;;
16994;SDS011;8614;48.522;9.206;2023-11-18T13:36:09;12.37;;;11.30;;
16994;SDS011;8614;48.522;9.206;2023-11-18T13:38:37;12.40;;;11.60;;
16994;SDS011;8614;48.522;9.206;2023-11-18T13:41:04;12.00;;;11.20;;
16994;SDS011;8614;48.522;9.206;2023-11-18T13:43:44;12.43;;;11.63;;
16994;SDS011;8614;48.522;9.206;2023-11-18T13:46:13;12.43;;;11.73;;
16994;SDS011;8614;48.522;9.206;2023-11-18T13:48:46;12.30;;;11.60;;
16994;SDS011;8614;48.522;9.206;2023-11-18T13:51:14;12.63;;;11.83;;
16994;SDS011;8614;48.522;9.206;2023-11-18T13:53:44;12.70;;;11.90;;
16994;SDS011;8614;48.522;9.206;2023-11-18T13:56:11;12.30;;;11.40;;
16994;SDS011;8614;48.522;9.206;2023-11-18T13:58:38;12.10;;;11.27;;
16994;SDS011;8614;48.522;9.206;2023-11-18T14:01:07;12.33;;;11.63;;
16994;SDS011;8614;48.522;9.206;2023-11-18T14:03:37;12.40;;;11.53;;
16994;SDS011;8614;48.522;9.206;2023-11-18T14:06:07;12.00;;;11.20;;
16994;SDS011;8614;48.522;9.206;2023-11-18T14:08:36;12.63;;;11.80;;
16994;SDS011;8614;48.522;9.206;2023-11-18T14:11:03;12.50;;;11.70;;
16994;SDS011;8614;48.522;9.206;2023-11-18T14:13:31;11.25;;;10.55;;
16994;SDS011;8614;48.522;9.206;2023-11-18T14:16:00;11.90;;;11.20;;
16994;SDS011;8614;48.522;9.206;2023-11-18T14:18:28;11.93;;;11.23;;
16994;SDS011;8614;48.522;9.206;2023-11-18T14:20:55;11.67;;;10.97;;
16994;SDS011;8614;48.522;9.206;2023-11-18T14:23:23;11.40;;;10.60;;
16994;SDS011;8614;48.522;9.206;2023-11-18T14:25:50;12.50;;;11.63;;
16994;SDS011;8614;48.522;9.206;2023-11-18T14:28:17;11.30;;;10.60;;
16994;SDS011;8614;48.522;9.206;2023-11-18T14:30:44;11.50;;;10.70;;
16994;SDS011;8614;48.522;9.206;2023-11-18T14:33:11;10.83;;;10.20;;
16994;SDS011;8614;48.522;9.206;2023-11-18T14:35:39;12.10;;;11.20;;
16994;SDS011;8614;48.522;9.206;2023-11-18T14:38:09;12.00;;;11.20;;
16994;SDS011;8614;48.522;9.206;2023-11-18T14:40:37;12.50;;;11.60;;
16994;SDS011;8614;48.522;9.206;2023-11-18T14:43:05;11.80;;;11.00;;
16994;SDS011;8614;48.522;9.206;2023-11-18T14:45:32;12.40;;;11.60;;
16994;SDS011;8614;48.522;9.206;2023-11-18T14:48:02;11.27;;;10.57;;
16994;SDS011;8614;48.522;9.206;2023-11-18T14:50:28;12.17;;;11.27;;
16994;SDS011;8614;48.522;9.206;2023-11-18T14:52:58;11.97;;;11.17;;
16994;SDS011;8614;48.522;9.206;2023-11-18T14:55:25;12.10;;;11.30;;
16994;SDS011;8614;48.522;9.206;2023-11-18T14:57:52;12.03;;;11.23;;
16994;SDS011;8614;48.522;9.206;2023-11-18T15:00:20;12.20;;;11.40;;
16994;SDS011;8614;48.522;9.206;2023-11-18T15:02:50;12.33;;;11.50;;
16994;SDS011;8614;48.522;9.206;2023-11-18T15:05:18;11.77;;;11.03;;
16994;SDS011;8614;48.522;9.206;2023-11-18T15:07:47;12.33;;;11.63;;